Mia-s — V2EI7 — position and weather

sailwx.info

Track history (hours):
 
Tides and Currents Weather Stations Pressure Air Temp Water Temp Dewpoint Dewpoint Depression Visibility Wind Speed Wind Dir Waves Ship Positions

Mia-s

Last reported at 2018-Feb-11 05:16 UTC. Time now 2018-Feb-24 14:13 UTC.
Position N 36°26' E 014°43'.
Warning: this ship's position is 13 days out of date.

Length 190 m; draft 12.2 m.

Type: Cargo ship. MMSI: 305442000.

Date/timePositionNaut miles runAvg speedWind from/ knotsBaromVisibWave heightAir tempDewpointWater temp
2018-Feb-11 05:16N 36°26' E 014°43'312.6
2018-Feb-11 05:00N 36°27' E 014°39'612.6
2018-Feb-11 04:30N 36°29' E 014°31'612.4
2018-Feb-11 04:00N 36°31' E 014°24'612.1
2018-Feb-11 03:29N 36°33' E 014°17'712.2
2018-Feb-11 02:56N 36°34' E 014°09'  
2018-Feb-08 03:00N 36°11' W 003°43'7012.8
2018-Feb-07 21:32N 36°01' W 005°09'214.8
2018-Feb-07 21:23N 36°01' W 005°11'  
2018-Feb-04 02:18N 37°33' W 023°45'311.0
2018-Feb-04 02:00N 37°33' W 023°49'511.0
2018-Feb-04 01:30N 37°34' W 023°56'510.9
2018-Feb-04 01:00N 37°34' W 024°03'510.9
2018-Feb-04 00:30N 37°34' W 024°10'611.1
2018-Feb-04 00:01N 37°34' W 024°17'510.9
2018-Feb-03 23:31N 37°34' W 024°24'611.1
2018-Feb-03 23:01N 37°34' W 024°31'611.0
2018-Feb-03 22:30N 37°34' W 024°38'510.8
2018-Feb-03 22:01N 37°35' W 024°45'510.9
2018-Feb-03 21:30N 37°35' W 024°51'611.2
2018-Feb-03 21:00N 37°35' W 024°59'511.0
2018-Feb-03 20:31N 37°35' W 025°05'611.3
2018-Feb-03 20:00N 37°35' W 025°13'1711.6
2018-Feb-03 18:30N 37°36' W 025°35'612.0
2018-Feb-03 18:01N 37°36' W 025°42'611.7
2018-Feb-03 17:31N 37°36' W 025°49'611.6
2018-Feb-03 17:01N 37°36' W 025°57'1212.1
2018-Feb-03 16:00N 37°36' W 026°12'611.7
2018-Feb-03 15:31N 37°36' W 026°19'611.5
2018-Feb-03 15:01N 37°36' W 026°27'611.5
2018-Feb-03 14:30N 37°36' W 026°34'611.5
2018-Feb-03 14:00N 37°37' W 026°41'611.8
2018-Feb-03 13:30N 37°37' W 026°49'611.7
2018-Feb-03 13:00N 37°37' W 026°56'611.8
2018-Feb-03 12:29N 37°37' W 027°04'2111.8
2018-Feb-03 10:44N 37°37' W 027°30'1612.1
2018-Feb-03 09:24N 37°37' W 027°50'512.2
2018-Feb-03 09:00N 37°37' W 027°56'612.3
2018-Feb-03 08:30N 37°37' W 028°04'612.2
2018-Feb-03 08:00N 37°38' W 028°12'1811.7
2018-Feb-03 06:30N 37°37' W 028°34'611.8
2018-Feb-03 06:01N 37°37' W 028°41'611.8
2018-Feb-03 05:30N 37°37' W 028°49'612.1
2018-Feb-03 05:01N 37°37' W 028°56'1212.2
2018-Feb-03 04:00N 37°37' W 029°12'612.3
2018-Feb-03 03:30N 37°37' W 029°20'1912.3
2018-Feb-03 01:58N 37°37' W 029°43'612.5
2018-Feb-03 01:30N 37°37' W 029°51'612.5
2018-Feb-03 01:00N 37°37' W 029°58'612.1
2018-Feb-03 00:29N 37°37' W 030°07'612.0
2018-Feb-02 23:58N 37°36' W 030°14'912.1
2018-Feb-02 23:13N 37°36' W 030°26'411.8
2018-Feb-02 22:52N 37°36' W 030°31'711.7
2018-Feb-02 22:17N 37°36' W 030°39'2611.9
2018-Feb-02 20:05N 37°35' W 031°13'112.0
2018-Feb-02 19:59N 37°35' W 031°14'  
Track history (hours):
 
Tides and Currents Weather Stations Pressure Air Temp Water Temp Dewpoint Dewpoint Depression Visibility Wind Speed Wind Dir Waves Ship Positions

Mia-s

Last reported at 2018-Feb-11 05:16 UTC. Time now 2018-Feb-24 14:13 UTC.
Position N 36°26' E 014°43'.
Warning: this ship's position is 13 days out of date.

Length 190 m; draft 12.2 m.

Type: Cargo ship. MMSI: 305442000.

Date/timePositionNaut miles runAvg speedWind from/ knotsBaromVisibWave heightAir tempDewpointWater temp
2018-Feb-11 05:16N 36°26' E 014°43'312.6
2018-Feb-11 05:00N 36°27' E 014°39'612.6
2018-Feb-11 04:30N 36°29' E 014°31'612.4
2018-Feb-11 04:00N 36°31' E 014°24'612.1
2018-Feb-11 03:29N 36°33' E 014°17'712.2
2018-Feb-11 02:56N 36°34' E 014°09'  
2018-Feb-08 03:00N 36°11' W 003°43'7012.8
2018-Feb-07 21:32N 36°01' W 005°09'214.8
2018-Feb-07 21:23N 36°01' W 005°11'  
2018-Feb-04 02:18N 37°33' W 023°45'311.0
2018-Feb-04 02:00N 37°33' W 023°49'511.0
2018-Feb-04 01:30N 37°34' W 023°56'510.9
2018-Feb-04 01:00N 37°34' W 024°03'510.9
2018-Feb-04 00:30N 37°34' W 024°10'611.1
2018-Feb-04 00:01N 37°34' W 024°17'510.9
2018-Feb-03 23:31N 37°34' W 024°24'611.1
2018-Feb-03 23:01N 37°34' W 024°31'611.0
2018-Feb-03 22:30N 37°34' W 024°38'510.8
2018-Feb-03 22:01N 37°35' W 024°45'510.9
2018-Feb-03 21:30N 37°35' W 024°51'611.2
2018-Feb-03 21:00N 37°35' W 024°59'511.0
2018-Feb-03 20:31N 37°35' W 025°05'611.3
2018-Feb-03 20:00N 37°35' W 025°13'1711.6
2018-Feb-03 18:30N 37°36' W 025°35'612.0
2018-Feb-03 18:01N 37°36' W 025°42'611.7
2018-Feb-03 17:31N 37°36' W 025°49'611.6
2018-Feb-03 17:01N 37°36' W 025°57'1212.1
2018-Feb-03 16:00N 37°36' W 026°12'611.7
2018-Feb-03 15:31N 37°36' W 026°19'611.5
2018-Feb-03 15:01N 37°36' W 026°27'611.5
2018-Feb-03 14:30N 37°36' W 026°34'611.5
2018-Feb-03 14:00N 37°37' W 026°41'611.8
2018-Feb-03 13:30N 37°37' W 026°49'611.7
2018-Feb-03 13:00N 37°37' W 026°56'611.8
2018-Feb-03 12:29N 37°37' W 027°04'2111.8
2018-Feb-03 10:44N 37°37' W 027°30'1612.1
2018-Feb-03 09:24N 37°37' W 027°50'512.2
2018-Feb-03 09:00N 37°37' W 027°56'612.3
2018-Feb-03 08:30N 37°37' W 028°04'612.2
2018-Feb-03 08:00N 37°38' W 028°12'1811.7
2018-Feb-03 06:30N 37°37' W 028°34'611.8
2018-Feb-03 06:01N 37°37' W 028°41'611.8
2018-Feb-03 05:30N 37°37' W 028°49'612.1
2018-Feb-03 05:01N 37°37' W 028°56'1212.2
2018-Feb-03 04:00N 37°37' W 029°12'612.3
2018-Feb-03 03:30N 37°37' W 029°20'1912.3
2018-Feb-03 01:58N 37°37' W 029°43'612.5
2018-Feb-03 01:30N 37°37' W 029°51'612.5
2018-Feb-03 01:00N 37°37' W 029°58'612.1
2018-Feb-03 00:29N 37°37' W 030°07'612.0
2018-Feb-02 23:58N 37°36' W 030°14'912.1
2018-Feb-02 23:13N 37°36' W 030°26'411.8
2018-Feb-02 22:52N 37°36' W 030°31'711.7
2018-Feb-02 22:17N 37°36' W 030°39'2611.9
2018-Feb-02 20:05N 37°35' W 031°13'112.0
2018-Feb-02 19:59N 37°35' W 031°14'  

Dump ship's entire track history